Terminal Aerodrome Forecast
Issued by NWS Melbourne, FL

Home | Current Version | Previous Version | Text Only | Print | Product List | Glossary On
Versions: 1 2 3 4 5 6 7 8 9 10 11 12 13 14 15 16 17 18 19 20 21 22 23 24 25 26 27
000
FTUS42 KMLB 292052 AAB
TAFMCO
TAF AMD
KMCO 292052Z 2921/3018 24008KT P6SM FEW040 BKN250
     FM300100 20005KT P6SM FEW040 SCT080 BKN250
     FM301500 19004KT P6SM FEW025 FEW250=

USA.gov is the U.S. government's official web portal to all federal, state and local government web resources and services.